sensor_id;sensor_type;location;lat;lon;timestamp;temperature;humidity
17571;DHT22;8903;52.220;20.978;2023-01-01T00:01:45;13.90;99.90
17571;DHT22;8903;52.220;20.978;2023-01-01T00:04:14;13.90;99.90
17571;DHT22;8903;52.220;20.978;2023-01-01T00:06:41;13.90;99.90
17571;DHT22;8903;52.220;20.978;2023-01-01T00:09:10;13.90;99.90
17571;DHT22;8903;52.220;20.978;2023-01-01T00:11:55;13.90;99.90
17571;DHT22;8903;52.220;20.978;2023-01-01T00:14:24;13.90;99.90
17571;DHT22;8903;52.220;20.978;2023-01-01T00:16:53;14.00;99.90
17571;DHT22;8903;52.220;20.978;2023-01-01T00:19:20;14.00;99.90
17571;DHT22;8903;52.220;20.978;2023-01-01T00:21:48;14.00;99.90
17571;DHT22;8903;52.220;20.978;2023-01-01T00:24:15;13.90;99.90
17571;DHT22;8903;52.220;20.978;2023-01-01T00:26:42;14.00;99.90
17571;DHT22;8903;52.220;20.978;2023-01-01T00:29:09;14.00;99.90
17571;DHT22;8903;52.220;20.978;2023-01-01T00:31:37;13.90;99.90
17571;DHT22;8903;52.220;20.978;2023-01-01T00:34:04;13.90;99.90
17571;DHT22;8903;52.220;20.978;2023-01-01T00:36:31;13.90;99.90
17571;DHT22;8903;52.220;20.978;2023-01-01T00:39:00;13.90;99.90
17571;DHT22;8903;52.220;20.978;2023-01-01T00:41:27;13.90;99.90
17571;DHT22;8903;52.220;20.978;2023-01-01T00:43:54;13.80;99.90
17571;DHT22;8903;52.220;20.978;2023-01-01T00:46:21;13.80;99.90
17571;DHT22;8903;52.220;20.978;2023-01-01T00:48:51;13.80;99.90
17571;DHT22;8903;52.220;20.978;2023-01-01T00:51:18;13.80;99.90
17571;DHT22;8903;52.220;20.978;2023-01-01T00:53:45;13.80;99.90
17571;DHT22;8903;52.220;20.978;2023-01-01T00:56:12;13.90;99.90
17571;DHT22;8903;52.220;20.978;2023-01-01T00:58:39;13.90;99.90
17571;DHT22;8903;52.220;20.978;2023-01-01T01:01:06;13.90;99.90
17571;DHT22;8903;52.220;20.978;2023-01-01T01:03:33;13.90;99.90
17571;DHT22;8903;52.220;20.978;2023-01-01T01:06:09;13.90;99.90
17571;DHT22;8903;52.220;20.978;2023-01-01T01:08:39;13.90;99.90
17571;DHT22;8903;52.220;20.978;2023-01-01T01:11:09;13.90;99.90
17571;DHT22;8903;52.220;20.978;2023-01-01T01:13:37;14.00;99.90
17571;DHT22;8903;52.220;20.978;2023-01-01T01:16:07;14.00;99.90
17571;DHT22;8903;52.220;20.978;2023-01-01T01:18:35;14.00;99.90
17571;DHT22;8903;52.220;20.978;2023-01-01T01:21:02;14.00;99.90
17571;DHT22;8903;52.220;20.978;2023-01-01T01:23:32;14.00;99.90
17571;DHT22;8903;52.220;20.978;2023-01-01T01:26:09;14.00;99.90
17571;DHT22;8903;52.220;20.978;2023-01-01T01:28:37;14.00;99.90
17571;DHT22;8903;52.220;20.978;2023-01-01T01:31:05;14.00;99.90
17571;DHT22;8903;52.220;20.978;2023-01-01T01:33:32;14.10;99.90
17571;DHT22;8903;52.220;20.978;2023-01-01T01:35:59;14.10;99.90
17571;DHT22;8903;52.220;20.978;2023-01-01T01:38:26;14.10;99.90
17571;DHT22;8903;52.220;20.978;2023-01-01T01:40:54;14.20;99.90
17571;DHT22;8903;52.220;20.978;2023-01-01T01:43:24;14.20;99.90
17571;DHT22;8903;52.220;20.978;2023-01-01T01:45:54;14.20;99.90
17571;DHT22;8903;52.220;20.978;2023-01-01T01:48:24;14.20;99.90
17571;DHT22;8903;52.220;20.978;2023-01-01T01:50:52;14.30;99.90
17571;DHT22;8903;52.220;20.978;2023-01-01T01:53:25;14.30;99.90
17571;DHT22;8903;52.220;20.978;2023-01-01T01:55:56;14.30;99.90
17571;DHT22;8903;52.220;20.978;2023-01-01T01:58:24;14.30;99.90
17571;DHT22;8903;52.220;20.978;2023-01-01T02:00:52;14.40;99.90
17571;DHT22;8903;52.220;20.978;2023-01-01T02:03:22;14.40;99.90
17571;DHT22;8903;52.220;20.978;2023-01-01T02:05:51;14.30;99.90
17571;DHT22;8903;52.220;20.978;2023-01-01T02:08:19;14.30;99.90
17571;DHT22;8903;52.220;20.978;2023-01-01T02:10:46;14.30;99.90
17571;DHT22;8903;52.220;20.978;2023-01-01T02:13:15;14.30;99.90
17571;DHT22;8903;52.220;20.978;2023-01-01T02:15:50;14.30;99.90
17571;DHT22;8903;52.220;20.978;2023-01-01T02:18:20;14.40;99.90
17571;DHT22;8903;52.220;20.978;2023-01-01T02:20:53;14.40;99.90
17571;DHT22;8903;52.220;20.978;2023-01-01T02:23:47;14.40;99.90
17571;DHT22;8903;52.220;20.978;2023-01-01T02:29:40;14.30;99.90
17571;DHT22;8903;52.220;20.978;2023-01-01T02:32:10;14.30;99.90
17571;DHT22;8903;52.220;20.978;2023-01-01T02:34:40;14.30;99.90
17571;DHT22;8903;52.220;20.978;2023-01-01T02:37:11;14.30;99.90
17571;DHT22;8903;52.220;20.978;2023-01-01T02:39:43;14.30;99.90
17571;DHT22;8903;52.220;20.978;2023-01-01T02:42:12;14.30;99.90
17571;DHT22;8903;52.220;20.978;2023-01-01T02:44:44;14.30;99.90
17571;DHT22;8903;52.220;20.978;2023-01-01T02:47:16;14.30;99.90
17571;DHT22;8903;52.220;20.978;2023-01-01T02:49:49;14.30;99.90
17571;DHT22;8903;52.220;20.978;2023-01-01T02:52:31;14.30;99.90
17571;DHT22;8903;52.220;20.978;2023-01-01T02:55:08;14.40;99.90
17571;DHT22;8903;52.220;20.978;2023-01-01T02:57:44;14.40;99.90
17571;DHT22;8903;52.220;20.978;2023-01-01T03:00:14;14.40;99.90
17571;DHT22;8903;52.220;20.978;2023-01-01T03:03:05;14.40;99.90
17571;DHT22;8903;52.220;20.978;2023-01-01T03:05:40;14.30;99.90
17571;DHT22;8903;52.220;20.978;2023-01-01T03:08:29;14.30;99.90
17571;DHT22;8903;52.220;20.978;2023-01-01T03:11:03;14.30;99.90
17571;DHT22;8903;52.220;20.978;2023-01-01T03:13:35;14.30;99.90
17571;DHT22;8903;52.220;20.978;2023-01-01T03:16:11;14.40;99.90
17571;DHT22;8903;52.220;20.978;2023-01-01T03:18:45;14.50;99.90
17571;DHT22;8903;52.220;20.978;2023-01-01T03:21:16;14.50;99.90
17571;DHT22;8903;52.220;20.978;2023-01-01T03:23:49;14.50;99.90
17571;DHT22;8903;52.220;20.978;2023-01-01T03:26:22;14.40;99.90
17571;DHT22;8903;52.220;20.978;2023-01-01T03:28:55;14.50;99.90
17571;DHT22;8903;52.220;20.978;2023-01-01T03:31:25;14.50;99.90
17571;DHT22;8903;52.220;20.978;2023-01-01T03:33:57;14.50;99.90
17571;DHT22;8903;52.220;20.978;2023-01-01T03:36:29;14.60;99.90
17571;DHT22;8903;52.220;20.978;2023-01-01T03:39:00;14.60;99.90
17571;DHT22;8903;52.220;20.978;2023-01-01T03:41:35;14.60;99.90
17571;DHT22;8903;52.220;20.978;2023-01-01T03:44:06;14.60;99.90
17571;DHT22;8903;52.220;20.978;2023-01-01T03:46:36;14.60;99.90
17571;DHT22;8903;52.220;20.978;2023-01-01T03:49:05;14.70;99.90
17571;DHT22;8903;52.220;20.978;2023-01-01T03:51:54;14.70;99.90
17571;DHT22;8903;52.220;20.978;2023-01-01T03:54:34;14.70;99.90
17571;DHT22;8903;52.220;20.978;2023-01-01T03:57:08;14.80;99.90
17571;DHT22;8903;52.220;20.978;2023-01-01T03:59:41;14.70;99.90
17571;DHT22;8903;52.220;20.978;2023-01-01T04:02:12;14.70;99.90
17571;DHT22;8903;52.220;20.978;2023-01-01T04:04:42;14.70;99.90
17571;DHT22;8903;52.220;20.978;2023-01-01T04:07:10;14.70;99.90
17571;DHT22;8903;52.220;20.978;2023-01-01T04:09:39;14.60;99.90
17571;DHT22;8903;52.220;20.978;2023-01-01T04:12:09;14.60;99.90
17571;DHT22;8903;52.220;20.978;2023-01-01T04:14:40;14.60;99.90
17571;DHT22;8903;52.220;20.978;2023-01-01T04:17:09;14.60;99.90
17571;DHT22;8903;52.220;20.978;2023-01-01T04:19:37;14.60;99.90
17571;DHT22;8903;52.220;20.978;2023-01-01T04:22:05;14.70;99.90
17571;DHT22;8903;52.220;20.978;2023-01-01T04:24:32;14.70;99.90
17571;DHT22;8903;52.220;20.978;2023-01-01T04:26:59;14.70;99.90
17571;DHT22;8903;52.220;20.978;2023-01-01T04:29:26;14.70;99.90
17571;DHT22;8903;52.220;20.978;2023-01-01T04:31:53;14.70;99.90
17571;DHT22;8903;52.220;20.978;2023-01-01T04:34:20;14.70;99.90
17571;DHT22;8903;52.220;20.978;2023-01-01T04:36:48;14.80;99.90
17571;DHT22;8903;52.220;20.978;2023-01-01T04:39:16;14.70;99.90
17571;DHT22;8903;52.220;20.978;2023-01-01T04:41:43;14.80;99.90
17571;DHT22;8903;52.220;20.978;2023-01-01T04:44:12;14.80;99.90
17571;DHT22;8903;52.220;20.978;2023-01-01T04:46:40;14.80;99.90
17571;DHT22;8903;52.220;20.978;2023-01-01T04:49:07;14.80;99.90
17571;DHT22;8903;52.220;20.978;2023-01-01T04:51:34;14.90;99.90
17571;DHT22;8903;52.220;20.978;2023-01-01T04:54:03;14.90;99.90
17571;DHT22;8903;52.220;20.978;2023-01-01T04:56:30;14.90;99.90
17571;DHT22;8903;52.220;20.978;2023-01-01T04:58:57;14.90;99.90
17571;DHT22;8903;52.220;20.978;2023-01-01T05:01:26;14.90;99.90
17571;DHT22;8903;52.220;20.978;2023-01-01T05:03:55;14.90;99.90
17571;DHT22;8903;52.220;20.978;2023-01-01T05:06:23;14.90;99.90
17571;DHT22;8903;52.220;20.978;2023-01-01T05:08:55;14.90;99.90
17571;DHT22;8903;52.220;20.978;2023-01-01T05:11:26;14.90;99.90
17571;DHT22;8903;52.220;20.978;2023-01-01T05:13:55;15.00;99.90
17571;DHT22;8903;52.220;20.978;2023-01-01T05:16:25;15.00;99.90
17571;DHT22;8903;52.220;20.978;2023-01-01T05:18:53;15.00;99.90
17571;DHT22;8903;52.220;20.978;2023-01-01T05:21:23;15.00;99.90
17571;DHT22;8903;52.220;20.978;2023-01-01T05:23:53;15.00;99.90
17571;DHT22;8903;52.220;20.978;2023-01-01T05:26:22;15.00;99.90
17571;DHT22;8903;52.220;20.978;2023-01-01T05:28:50;15.10;99.90
17571;DHT22;8903;52.220;20.978;2023-01-01T05:31:19;15.10;99.90
17571;DHT22;8903;52.220;20.978;2023-01-01T05:33:48;15.10;99.90
17571;DHT22;8903;52.220;20.978;2023-01-01T05:36:16;15.10;99.90
17571;DHT22;8903;52.220;20.978;2023-01-01T05:38:44;15.10;99.90
17571;DHT22;8903;52.220;20.978;2023-01-01T05:41:13;15.10;99.90
17571;DHT22;8903;52.220;20.978;2023-01-01T05:43:40;15.00;99.90
17571;DHT22;8903;52.220;20.978;2023-01-01T05:46:11;15.00;99.90
17571;DHT22;8903;52.220;20.978;2023-01-01T05:48:38;15.00;99.90
17571;DHT22;8903;52.220;20.978;2023-01-01T05:51:07;14.90;99.90
17571;DHT22;8903;52.220;20.978;2023-01-01T05:53:34;15.00;99.90
17571;DHT22;8903;52.220;20.978;2023-01-01T05:56:03;15.00;99.90
17571;DHT22;8903;52.220;20.978;2023-01-01T05:58:31;15.00;99.90
17571;DHT22;8903;52.220;20.978;2023-01-01T06:01:05;15.00;99.90
17571;DHT22;8903;52.220;20.978;2023-01-01T06:03:33;14.90;99.90
17571;DHT22;8903;52.220;20.978;2023-01-01T06:06:03;14.90;99.90
17571;DHT22;8903;52.220;20.978;2023-01-01T06:08:30;14.90;99.90
17571;DHT22;8903;52.220;20.978;2023-01-01T06:10:58;14.90;99.90
17571;DHT22;8903;52.220;20.978;2023-01-01T06:13:25;14.80;99.90
17571;DHT22;8903;52.220;20.978;2023-01-01T06:15:53;14.80;99.90
17571;DHT22;8903;52.220;20.978;2023-01-01T06:18:22;14.80;99.90
17571;DHT22;8903;52.220;20.978;2023-01-01T06:20:51;14.80;99.90
17571;DHT22;8903;52.220;20.978;2023-01-01T06:23:18;14.80;99.90
17571;DHT22;8903;52.220;20.978;2023-01-01T06:25:45;14.70;99.90
17571;DHT22;8903;52.220;20.978;2023-01-01T06:28:12;14.70;99.90
17571;DHT22;8903;52.220;20.978;2023-01-01T06:30:39;14.60;99.90
17571;DHT22;8903;52.220;20.978;2023-01-01T06:33:06;14.60;99.90
17571;DHT22;8903;52.220;20.978;2023-01-01T06:35:34;14.60;99.90
17571;DHT22;8903;52.220;20.978;2023-01-01T06:38:03;14.50;99.90
17571;DHT22;8903;52.220;20.978;2023-01-01T06:40:30;14.50;99.90
17571;DHT22;8903;52.220;20.978;2023-01-01T06:42:57;14.50;99.90
17571;DHT22;8903;52.220;20.978;2023-01-01T06:45:24;14.40;99.90
17571;DHT22;8903;52.220;20.978;2023-01-01T06:47:51;14.30;99.90
17571;DHT22;8903;52.220;20.978;2023-01-01T06:50:18;14.40;99.90
17571;DHT22;8903;52.220;20.978;2023-01-01T06:52:46;14.30;99.90
17571;DHT22;8903;52.220;20.978;2023-01-01T06:55:14;14.30;99.90
17571;DHT22;8903;52.220;20.978;2023-01-01T06:57:41;14.30;99.90
17571;DHT22;8903;52.220;20.978;2023-01-01T07:00:09;14.20;99.90
17571;DHT22;8903;52.220;20.978;2023-01-01T07:02:36;14.20;99.90
17571;DHT22;8903;52.220;20.978;2023-01-01T07:05:04;14.20;99.90
17571;DHT22;8903;52.220;20.978;2023-01-01T07:07:31;14.20;99.90
17571;DHT22;8903;52.220;20.978;2023-01-01T07:09:58;14.20;99.90
17571;DHT22;8903;52.220;20.978;2023-01-01T07:12:26;14.20;99.90
17571;DHT22;8903;52.220;20.978;2023-01-01T07:14:54;14.20;99.90
17571;DHT22;8903;52.220;20.978;2023-01-01T07:17:21;14.20;99.90
17571;DHT22;8903;52.220;20.978;2023-01-01T07:19:48;14.20;99.90
17571;DHT22;8903;52.220;20.978;2023-01-01T07:22:15;14.20;99.90
17571;DHT22;8903;52.220;20.978;2023-01-01T07:24:42;14.20;99.90
17571;DHT22;8903;52.220;20.978;2023-01-01T07:27:09;14.20;99.90
17571;DHT22;8903;52.220;20.978;2023-01-01T07:29:37;14.20;99.90
17571;DHT22;8903;52.220;20.978;2023-01-01T07:32:05;14.30;99.90
17571;DHT22;8903;52.220;20.978;2023-01-01T07:34:32;14.30;99.90
17571;DHT22;8903;52.220;20.978;2023-01-01T07:37:00;14.30;99.90
17571;DHT22;8903;52.220;20.978;2023-01-01T07:39:27;14.30;99.90
17571;DHT22;8903;52.220;20.978;2023-01-01T07:41:54;14.30;99.90
17571;DHT22;8903;52.220;20.978;2023-01-01T07:44:21;14.40;99.90
17571;DHT22;8903;52.220;20.978;2023-01-01T07:46:49;14.40;99.90
17571;DHT22;8903;52.220;20.978;2023-01-01T07:49:16;14.50;99.90
17571;DHT22;8903;52.220;20.978;2023-01-01T07:51:43;14.50;99.90
17571;DHT22;8903;52.220;20.978;2023-01-01T07:54:10;14.50;99.90
17571;DHT22;8903;52.220;20.978;2023-01-01T07:56:37;14.70;99.90
17571;DHT22;8903;52.220;20.978;2023-01-01T07:59:05;15.00;99.90
17571;DHT22;8903;52.220;20.978;2023-01-01T08:01:34;14.90;99.90
17571;DHT22;8903;52.220;20.978;2023-01-01T08:04:03;14.90;99.90
17571;DHT22;8903;52.220;20.978;2023-01-01T08:06:31;14.90;99.90
17571;DHT22;8903;52.220;20.978;2023-01-01T08:08:58;14.90;99.90
17571;DHT22;8903;52.220;20.978;2023-01-01T08:11:25;14.90;99.90
17571;DHT22;8903;52.220;20.978;2023-01-01T08:13:52;14.90;99.90
17571;DHT22;8903;52.220;20.978;2023-01-01T08:16:19;15.00;99.90
17571;DHT22;8903;52.220;20.978;2023-01-01T08:18:46;15.00;99.90
17571;DHT22;8903;52.220;20.978;2023-01-01T08:21:15;15.10;99.90
17571;DHT22;8903;52.220;20.978;2023-01-01T08:23:42;15.20;99.90
17571;DHT22;8903;52.220;20.978;2023-01-01T08:26:13;15.30;99.90
17571;DHT22;8903;52.220;20.978;2023-01-01T08:28:40;15.40;99.90
17571;DHT22;8903;52.220;20.978;2023-01-01T08:31:08;15.50;99.90
17571;DHT22;8903;52.220;20.978;2023-01-01T08:33:35;15.50;99.90
17571;DHT22;8903;52.220;20.978;2023-01-01T08:36:02;15.50;99.90
17571;DHT22;8903;52.220;20.978;2023-01-01T08:38:30;15.70;99.90
17571;DHT22;8903;52.220;20.978;2023-01-01T08:40:57;15.60;99.90
17571;DHT22;8903;52.220;20.978;2023-01-01T08:43:24;15.60;99.90
17571;DHT22;8903;52.220;20.978;2023-01-01T08:45:51;15.60;99.90
17571;DHT22;8903;52.220;20.978;2023-01-01T08:48:18;15.60;99.90
17571;DHT22;8903;52.220;20.978;2023-01-01T08:50:51;15.50;99.90
17571;DHT22;8903;52.220;20.978;2023-01-01T08:53:18;15.50;99.90
17571;DHT22;8903;52.220;20.978;2023-01-01T08:55:56;15.60;99.90
17571;DHT22;8903;52.220;20.978;2023-01-01T08:58:23;15.70;99.90
17571;DHT22;8903;52.220;20.978;2023-01-01T09:00:52;15.70;99.90
17571;DHT22;8903;52.220;20.978;2023-01-01T09:03:20;15.70;99.90
17571;DHT22;8903;52.220;20.978;2023-01-01T09:05:47;15.80;99.90
17571;DHT22;8903;52.220;20.978;2023-01-01T09:08:15;15.90;99.90
17571;DHT22;8903;52.220;20.978;2023-01-01T09:10:42;16.00;99.90
17571;DHT22;8903;52.220;20.978;2023-01-01T09:13:14;16.10;99.90
17571;DHT22;8903;52.220;20.978;2023-01-01T09:15:42;16.30;99.90
17571;DHT22;8903;52.220;20.978;2023-01-01T09:18:09;16.40;99.90
17571;DHT22;8903;52.220;20.978;2023-01-01T09:20:37;16.50;99.90
17571;DHT22;8903;52.220;20.978;2023-01-01T09:23:06;16.70;99.90
17571;DHT22;8903;52.220;20.978;2023-01-01T09:25:34;16.90;99.90
17571;DHT22;8903;52.220;20.978;2023-01-01T09:28:03;17.00;99.90
17571;DHT22;8903;52.220;20.978;2023-01-01T09:30:32;17.10;99.90
17571;DHT22;8903;52.220;20.978;2023-01-01T09:33:00;17.20;99.90
17571;DHT22;8903;52.220;20.978;2023-01-01T09:35:27;17.20;99.90
17571;DHT22;8903;52.220;20.978;2023-01-01T09:37:55;17.30;99.90
17571;DHT22;8903;52.220;20.978;2023-01-01T09:40:27;17.30;99.90
17571;DHT22;8903;52.220;20.978;2023-01-01T09:43:12;17.40;99.90
17571;DHT22;8903;52.220;20.978;2023-01-01T09:45:53;17.50;99.90
17571;DHT22;8903;52.220;20.978;2023-01-01T09:48:21;17.50;99.90
17571;DHT22;8903;52.220;20.978;2023-01-01T09:50:49;17.50;99.90
17571;DHT22;8903;52.220;20.978;2023-01-01T09:53:21;17.60;99.90
17571;DHT22;8903;52.220;20.978;2023-01-01T09:55:52;17.60;99.90
17571;DHT22;8903;52.220;20.978;2023-01-01T09:58:22;17.70;99.90
17571;DHT22;8903;52.220;20.978;2023-01-01T10:00:54;17.80;99.90
17571;DHT22;8903;52.220;20.978;2023-01-01T10:03:29;17.80;99.90
17571;DHT22;8903;52.220;20.978;2023-01-01T10:06:12;17.80;99.90
17571;DHT22;8903;52.220;20.978;2023-01-01T10:08:50;17.90;99.90
17571;DHT22;8903;52.220;20.978;2023-01-01T10:11:27;17.90;99.90
17571;DHT22;8903;52.220;20.978;2023-01-01T10:13:59;18.00;99.90
17571;DHT22;8903;52.220;20.978;2023-01-01T10:16:32;18.00;99.90
17571;DHT22;8903;52.220;20.978;2023-01-01T10:19:06;18.00;99.90
17571;DHT22;8903;52.220;20.978;2023-01-01T10:21:41;18.00;99.90
17571;DHT22;8903;52.220;20.978;2023-01-01T10:24:26;18.00;99.90
17571;DHT22;8903;52.220;20.978;2023-01-01T10:26:58;18.00;99.90
17571;DHT22;8903;52.220;20.978;2023-01-01T10:29:34;18.10;99.90
17571;DHT22;8903;52.220;20.978;2023-01-01T10:32:16;18.10;99.90
17571;DHT22;8903;52.220;20.978;2023-01-01T10:34:44;18.10;99.90
17571;DHT22;8903;52.220;20.978;2023-01-01T10:37:12;18.10;99.90
17571;DHT22;8903;52.220;20.978;2023-01-01T10:39:39;18.10;99.90
17571;DHT22;8903;52.220;20.978;2023-01-01T10:42:10;18.10;99.90
17571;DHT22;8903;52.220;20.978;2023-01-01T10:44:38;18.10;99.90
17571;DHT22;8903;52.220;20.978;2023-01-01T10:47:23;18.20;99.90
17571;DHT22;8903;52.220;20.978;2023-01-01T10:49:55;18.30;99.90
17571;DHT22;8903;52.220;20.978;2023-01-01T10:52:26;18.40;99.90
17571;DHT22;8903;52.220;20.978;2023-01-01T10:54:53;18.50;99.90
17571;DHT22;8903;52.220;20.978;2023-01-01T10:57:29;18.50;99.90
17571;DHT22;8903;52.220;20.978;2023-01-01T11:00:11;18.60;99.90
17571;DHT22;8903;52.220;20.978;2023-01-01T11:02:46;18.60;99.90
17571;DHT22;8903;52.220;20.978;2023-01-01T11:05:16;18.60;99.90
17571;DHT22;8903;52.220;20.978;2023-01-01T11:07:44;18.60;99.90
17571;DHT22;8903;52.220;20.978;2023-01-01T11:10:16;18.60;99.90
17571;DHT22;8903;52.220;20.978;2023-01-01T11:12:44;18.60;99.90
17571;DHT22;8903;52.220;20.978;2023-01-01T11:15:22;18.60;99.90
17571;DHT22;8903;52.220;20.978;2023-01-01T11:17:50;18.60;99.90
17571;DHT22;8903;52.220;20.978;2023-01-01T11:20:19;18.70;99.90
17571;DHT22;8903;52.220;20.978;2023-01-01T11:22:47;18.70;99.90
17571;DHT22;8903;52.220;20.978;2023-01-01T11:25:20;18.80;99.90
17571;DHT22;8903;52.220;20.978;2023-01-01T11:27:49;18.90;99.90
17571;DHT22;8903;52.220;20.978;2023-01-01T11:30:24;18.90;99.90
17571;DHT22;8903;52.220;20.978;2023-01-01T11:32:57;19.00;99.90
17571;DHT22;8903;52.220;20.978;2023-01-01T11:35:26;19.10;99.90
17571;DHT22;8903;52.220;20.978;2023-01-01T11:37:54;19.10;99.90
17571;DHT22;8903;52.220;20.978;2023-01-01T11:40:34;19.10;99.90
17571;DHT22;8903;52.220;20.978;2023-01-01T11:43:02;19.10;99.90
17571;DHT22;8903;52.220;20.978;2023-01-01T11:45:33;19.10;99.90
17571;DHT22;8903;52.220;20.978;2023-01-01T11:48:04;19.50;99.90
17571;DHT22;8903;52.220;20.978;2023-01-01T11:50:37;19.70;99.90
17571;DHT22;8903;52.220;20.978;2023-01-01T11:53:27;19.70;99.90
17571;DHT22;8903;52.220;20.978;2023-01-01T11:55:59;19.50;99.90
17571;DHT22;8903;52.220;20.978;2023-01-01T11:58:31;19.50;99.90
17571;DHT22;8903;52.220;20.978;2023-01-01T12:01:02;19.50;99.90
17571;DHT22;8903;52.220;20.978;2023-01-01T12:03:34;19.40;99.90
17571;DHT22;8903;52.220;20.978;2023-01-01T12:06:06;19.40;99.90
17571;DHT22;8903;52.220;20.978;2023-01-01T12:08:38;19.40;99.90
17571;DHT22;8903;52.220;20.978;2023-01-01T12:11:11;19.40;99.90
17571;DHT22;8903;52.220;20.978;2023-01-01T12:13:49;19.40;99.90
17571;DHT22;8903;52.220;20.978;2023-01-01T12:16:21;19.50;99.90
17571;DHT22;8903;52.220;20.978;2023-01-01T12:18:57;19.60;99.90
17571;DHT22;8903;52.220;20.978;2023-01-01T12:21:27;19.50;99.90
17571;DHT22;8903;52.220;20.978;2023-01-01T12:23:55;19.50;99.90
17571;DHT22;8903;52.220;20.978;2023-01-01T12:26:24;19.60;99.90
17571;DHT22;8903;52.220;20.978;2023-01-01T12:29:17;19.50;99.90
17571;DHT22;8903;52.220;20.978;2023-01-01T12:31:55;19.60;99.90
17571;DHT22;8903;52.220;20.978;2023-01-01T12:34:29;19.50;99.90
17571;DHT22;8903;52.220;20.978;2023-01-01T12:37:02;19.30;99.90
17571;DHT22;8903;52.220;20.978;2023-01-01T12:42:42;19.20;99.90
17571;DHT22;8903;52.220;20.978;2023-01-01T12:45:25;19.20;99.90
17571;DHT22;8903;52.220;20.978;2023-01-01T12:47:59;19.20;99.90
17571;DHT22;8903;52.220;20.978;2023-01-01T12:50:37;19.10;99.90
17571;DHT22;8903;52.220;20.978;2023-01-01T12:53:15;19.00;99.90
17571;DHT22;8903;52.220;20.978;2023-01-01T12:56:07;19.00;99.90
17571;DHT22;8903;52.220;20.978;2023-01-01T12:58:41;18.80;99.90
17571;DHT22;8903;52.220;20.978;2023-01-01T13:01:12;18.60;99.90
17571;DHT22;8903;52.220;20.978;2023-01-01T13:03:46;18.40;99.90
17571;DHT22;8903;52.220;20.978;2023-01-01T13:06:17;18.30;99.90
17571;DHT22;8903;52.220;20.978;2023-01-01T13:08:49;18.20;99.90
17571;DHT22;8903;52.220;20.978;2023-01-01T13:11:18;18.10;99.90
17571;DHT22;8903;52.220;20.978;2023-01-01T13:13:45;18.10;99.90
17571;DHT22;8903;52.220;20.978;2023-01-01T13:16:31;18.00;99.90
17571;DHT22;8903;52.220;20.978;2023-01-01T13:18:59;17.90;99.90
17571;DHT22;8903;52.220;20.978;2023-01-01T13:21:27;17.90;99.90
17571;DHT22;8903;52.220;20.978;2023-01-01T13:24:18;17.90;99.90
17571;DHT22;8903;52.220;20.978;2023-01-01T13:26:45;17.80;99.90
17571;DHT22;8903;52.220;20.978;2023-01-01T13:29:42;17.70;99.90
17571;DHT22;8903;52.220;20.978;2023-01-01T13:32:11;17.70;99.90
17571;DHT22;8903;52.220;20.978;2023-01-01T13:35:15;17.60;99.90
17571;DHT22;8903;52.220;20.978;2023-01-01T13:37:47;17.60;99.90
17571;DHT22;8903;52.220;20.978;2023-01-01T13:43:30;17.50;99.90
17571;DHT22;8903;52.220;20.978;2023-01-01T13:46:02;17.40;99.90
17571;DHT22;8903;52.220;20.978;2023-01-01T13:51:59;17.20;99.90
17571;DHT22;8903;52.220;20.978;2023-01-01T13:54:46;17.20;99.90
17571;DHT22;8903;52.220;20.978;2023-01-01T14:00:36;17.00;99.90
17571;DHT22;8903;52.220;20.978;2023-01-01T14:03:12;17.00;99.90
17571;DHT22;8903;52.220;20.978;2023-01-01T14:05:42;16.90;99.90
17571;DHT22;8903;52.220;20.978;2023-01-01T14:08:27;16.90;99.90
17571;DHT22;8903;52.220;20.978;2023-01-01T14:10:57;16.90;99.90
17571;DHT22;8903;52.220;20.978;2023-01-01T14:13:27;16.80;99.90
17571;DHT22;8903;52.220;20.978;2023-01-01T14:15:56;16.80;99.90
17571;DHT22;8903;52.220;20.978;2023-01-01T14:18:30;16.80;99.90
17571;DHT22;8903;52.220;20.978;2023-01-01T14:20:58;16.80;99.90
17571;DHT22;8903;52.220;20.978;2023-01-01T14:23:30;16.80;99.90
17571;DHT22;8903;52.220;20.978;2023-01-01T14:25:59;16.70;99.90
17571;DHT22;8903;52.220;20.978;2023-01-01T14:28:29;16.70;99.90
17571;DHT22;8903;52.220;20.978;2023-01-01T14:30:59;16.70;99.90
17571;DHT22;8903;52.220;20.978;2023-01-01T14:33:29;16.60;99.90
17571;DHT22;8903;52.220;20.978;2023-01-01T14:35:58;16.60;99.90
17571;DHT22;8903;52.220;20.978;2023-01-01T14:38:26;16.60;99.90
17571;DHT22;8903;52.220;20.978;2023-01-01T14:41:07;16.50;99.90
17571;DHT22;8903;52.220;20.978;2023-01-01T14:43:36;16.50;99.90
17571;DHT22;8903;52.220;20.978;2023-01-01T14:46:04;16.50;99.90
17571;DHT22;8903;52.220;20.978;2023-01-01T14:48:32;16.40;99.90
17571;DHT22;8903;52.220;20.978;2023-01-01T14:50:59;16.40;99.90
17571;DHT22;8903;52.220;20.978;2023-01-01T14:53:29;16.40;99.90
17571;DHT22;8903;52.220;20.978;2023-01-01T14:55:57;16.30;99.90
17571;DHT22;8903;52.220;20.978;2023-01-01T14:58:27;16.30;99.90
17571;DHT22;8903;52.220;20.978;2023-01-01T15:01:13;16.30;99.90
17571;DHT22;8903;52.220;20.978;2023-01-01T15:03:40;16.20;99.90
17571;DHT22;8903;52.220;20.978;2023-01-01T15:06:20;16.20;99.90
17571;DHT22;8903;52.220;20.978;2023-01-01T15:08:48;16.10;99.90
17571;DHT22;8903;52.220;20.978;2023-01-01T15:11:16;16.10;99.90
17571;DHT22;8903;52.220;20.978;2023-01-01T15:13:54;16.00;99.90
17571;DHT22;8903;52.220;20.978;2023-01-01T15:16:21;16.00;99.90
17571;DHT22;8903;52.220;20.978;2023-01-01T15:18:49;15.90;99.90
17571;DHT22;8903;52.220;20.978;2023-01-01T15:21:25;15.80;99.90
17571;DHT22;8903;52.220;20.978;2023-01-01T15:24:00;15.80;99.90
17571;DHT22;8903;52.220;20.978;2023-01-01T15:26:30;15.70;99.90
17571;DHT22;8903;52.220;20.978;2023-01-01T15:28:59;15.60;99.90
17571;DHT22;8903;52.220;20.978;2023-01-01T15:31:34;15.60;99.90
17571;DHT22;8903;52.220;20.978;2023-01-01T15:34:02;15.50;99.90
17571;DHT22;8903;52.220;20.978;2023-01-01T15:36:29;15.50;99.90
17571;DHT22;8903;52.220;20.978;2023-01-01T15:38:57;15.40;99.90
17571;DHT22;8903;52.220;20.978;2023-01-01T15:41:32;15.40;99.90
17571;DHT22;8903;52.220;20.978;2023-01-01T15:44:16;15.30;99.90
17571;DHT22;8903;52.220;20.978;2023-01-01T15:46:44;15.30;99.90
17571;DHT22;8903;52.220;20.978;2023-01-01T15:49:22;15.30;99.90
17571;DHT22;8903;52.220;20.978;2023-01-01T15:51:50;15.30;99.90
17571;DHT22;8903;52.220;20.978;2023-01-01T15:54:18;15.20;99.90
17571;DHT22;8903;52.220;20.978;2023-01-01T15:56:45;15.20;99.90
17571;DHT22;8903;52.220;20.978;2023-01-01T15:59:23;15.20;99.90
17571;DHT22;8903;52.220;20.978;2023-01-01T16:01:51;15.20;99.90
17571;DHT22;8903;52.220;20.978;2023-01-01T16:04:20;15.20;99.90
17571;DHT22;8903;52.220;20.978;2023-01-01T16:06:50;15.10;99.90
17571;DHT22;8903;52.220;20.978;2023-01-01T16:09:18;15.10;99.90